Time;durP1;ratioP1;P1;durP2;ratioP2;P2;SDS_P1;SDS_P2;PMS_P1;PMS_P2;Temp;Humidity;BMP_temperature;BMP_pressure;BME280_temperature;BME280_humidity;BME280_pressure;Samples;Min_cycle;Max_cycle;Signal;HPM_P1;HPM_P2
2021/01/26 00:01:56;;;;;;;23.90;13.40;;;0.70;99.90;;;;;;4175470;28;20320;-44
2021/01/26 00:03:58;;;;;;;28.83;15.27;;;0.70;99.90;;;;;;4175297;28;20661;-45
2021/01/26 00:05:59;;;;;;;29.27;15.37;;;0.70;99.90;;;;;;4174969;28;20333;-43
2021/01/26 00:08:00;;;;;;;29.07;15.13;;;0.60;99.90;;;;;;4175415;28;20274;-47
2021/01/26 00:10:02;;;;;;;26.43;13.83;;;0.60;99.90;;;;;;4174466;28;20355;-42
2021/01/26 00:12:04;;;;;;;25.33;14.53;;;0.50;99.90;;;;;;4174918;28;20780;-51
2021/01/26 00:14:05;;;;;;;23.90;13.20;;;0.50;99.90;;;;;;4174464;28;20766;-47
2021/01/26 00:16:06;;;;;;;25.10;12.77;;;0.50;99.90;;;;;;4175610;28;20270;-43
2021/01/26 00:18:07;;;;;;;24.93;12.40;;;0.50;99.90;;;;;;4174186;28;20274;-42
2021/01/26 00:20:11;;;;;;;26.20;12.83;;;0.50;99.90;;;;;;4174980;28;20819;-50
2021/01/26 00:22:12;;;;;;;20.83;12.33;;;0.50;99.90;;;;;;4174393;28;21197;-46
2021/01/26 00:24:13;;;;;;;20.57;12.73;;;0.50;99.90;;;;;;4174832;28;20266;-42
2021/01/26 00:26:15;;;;;;;20.30;11.77;;;0.50;99.90;;;;;;4174741;28;20670;-52
2021/01/26 00:28:17;;;;;;;22.80;11.70;;;0.50;99.90;;;;;;4175145;28;20274;-51
2021/01/26 00:30:22;;;;;;;22.60;11.13;;;0.50;99.90;;;;;;4174275;28;20681;-45
2021/01/26 00:32:23;;;;;;;19.10;10.33;;;0.60;99.90;;;;;;4174868;28;20274;-46
2021/01/26 00:34:24;;;;;;;22.33;12.47;;;0.60;99.90;;;;;;4174423;28;20403;-43
2021/01/26 00:36:26;;;;;;;22.53;12.10;;;0.60;99.90;;;;;;4174282;28;20332;-43
2021/01/26 00:38:27;;;;;;;18.17;10.70;;;0.60;99.90;;;;;;4174266;28;20807;-45
2021/01/26 00:40:29;;;;;;;21.70;11.90;;;0.70;99.90;;;;;;4174527;28;20653;-48
2021/01/26 00:42:30;;;;;;;19.00;11.00;;;0.70;99.90;;;;;;4174555;28;20298;-56
2021/01/26 00:44:32;;;;;;;18.70;11.00;;;0.70;99.90;;;;;;4174566;28;20278;-41
2021/01/26 00:46:33;;;;;;;17.70;10.80;;;0.70;99.90;;;;;;4175103;28;20786;-48
2021/01/26 00:48:34;;;;;;;18.40;10.73;;;0.70;99.90;;;;;;4173425;28;20328;-49
2021/01/26 00:50:35;;;;;;;18.53;11.00;;;0.70;99.90;;;;;;4175125;28;20270;-46
2021/01/26 00:52:37;;;;;;;18.87;11.00;;;0.80;99.90;;;;;;4174125;28;20270;-54
2021/01/26 00:54:38;;;;;;;18.67;11.47;;;0.70;99.90;;;;;;4174617;28;20296;-44
2021/01/26 00:56:39;;;;;;;28.43;15.80;;;0.70;99.90;;;;;;4173856;28;20290;-49
2021/01/26 00:58:40;;;;;;;22.67;13.03;;;0.60;99.90;;;;;;4174128;28;20837;-50
2021/01/26 01:00:41;;;;;;;24.57;14.00;;;0.50;99.90;;;;;;4174040;28;21213;-47
2021/01/26 01:02:42;;;;;;;28.50;15.77;;;0.50;99.90;;;;;;4174239;28;20324;-44
2021/01/26 01:04:45;;;;;;;23.47;13.00;;;0.50;99.90;;;;;;4174156;28;20270;-44
2021/01/26 01:06:46;;;;;;;25.67;13.07;;;0.40;99.90;;;;;;4173665;28;20270;-43
2021/01/26 01:08:47;;;;;;;25.20;13.27;;;0.40;99.90;;;;;;4173093;28;21055;-47
2021/01/26 01:10:51;;;;;;;29.10;15.23;;;0.40;99.90;;;;;;4174639;28;20673;-44
2021/01/26 01:12:53;;;;;;;30.93;15.40;;;0.40;99.90;;;;;;4173792;28;20332;-44
2021/01/26 01:14:54;;;;;;;26.87;15.10;;;0.40;99.90;;;;;;4174021;28;20319;-41
2021/01/26 01:16:56;;;;;;;30.00;16.40;;;0.30;99.90;;;;;;4174202;28;20289;-44
2021/01/26 01:18:57;;;;;;;33.90;17.83;;;0.30;99.90;;;;;;4173484;28;20316;-41
2021/01/26 01:20:58;;;;;;;33.30;16.67;;;0.30;99.90;;;;;;4174231;28;20278;-51
2021/01/26 01:22:59;;;;;;;30.83;17.33;;;0.30;99.90;;;;;;4173862;28;20278;-46
2021/01/26 01:25:00;;;;;;;32.00;17.20;;;0.20;99.90;;;;;;4172597;28;20316;-41
2021/01/26 01:27:02;;;;;;;32.03;18.10;;;0.30;99.90;;;;;;4173289;28;20270;-43
2021/01/26 01:29:03;;;;;;;30.70;16.30;;;0.20;99.90;;;;;;4173385;28;20742;-44
2021/01/26 01:31:04;;;;;;;28.47;15.17;;;0.30;99.90;;;;;;4173174;28;20340;-46
2021/01/26 01:33:06;;;;;;;30.57;16.03;;;0.20;99.90;;;;;;4174179;28;20328;-42
2021/01/26 01:35:08;;;;;;;34.37;15.50;;;0.20;99.90;;;;;;4173818;28;20327;-40
2021/01/26 01:37:09;;;;;;;28.93;16.00;;;0.30;99.90;;;;;;4173378;28;20298;-45
2021/01/26 01:39:11;;;;;;;30.73;16.07;;;0.20;99.90;;;;;;4173705;28;20320;-42
2021/01/26 01:41:12;;;;;;;32.57;15.53;;;0.20;99.90;;;;;;4173781;28;20297;-52
2021/01/26 01:43:13;;;;;;;28.63;15.63;;;0.20;99.90;;;;;;4173604;28;20677;-47
2021/01/26 01:45:16;;;;;;;28.83;15.77;;;0.20;99.90;;;;;;4173528;28;20379;-43
2021/01/26 01:47:37;;;;;;;27.23;14.87;;;0.30;99.90;;;;;;4173602;28;20278;-42
2021/01/26 01:49:43;;;;;;;29.97;16.43;;;0.30;99.90;;;;;;4173855;28;20278;-44
2021/01/26 01:51:45;;;;;;;30.53;16.57;;;0.20;99.90;;;;;;4173579;28;20378;-42
2021/01/26 01:53:54;;;;;;;35.53;15.80;;;0.20;99.90;;;;;;4173150;28;20367;-46
2021/01/26 01:56:04;;;;;;;27.50;14.17;;;0.20;99.90;;;;;;4173263;28;20266;-47
2021/01/26 01:58:12;;;;;;;29.52;16.10;;;0.20;99.90;;;;;;4172952;28;20290;-46
2021/01/26 02:00:15;;;;;;;24.87;15.13;;;0.20;99.90;;;;;;4173799;28;20037;-46
2021/01/26 02:02:18;;;;;;;27.70;14.93;;;0.30;99.90;;;;;;4173198;28;20270;-42
2021/01/26 02:04:21;;;;;;;31.57;16.40;;;0.30;99.90;;;;;;4173230;28;20286;-49
2021/01/26 02:06:28;;;;;;;31.37;15.70;;;0.40;99.90;;;;;;4172932;28;20266;-47
2021/01/26 02:08:54;;;;;;;30.30;15.83;;;0.40;99.90;;;;;;4173120;28;20274;-43
2021/01/26 02:10:56;;;;;;;31.97;16.03;;;0.50;99.90;;;;;;4172744;28;20262;-49
2021/01/26 02:12:57;;;;;;;30.63;15.13;;;0.50;99.90;;;;;;4173086;28;20332;-50
2021/01/26 02:14:59;;;;;;;30.07;16.03;;;0.60;99.90;;;;;;4172827;28;20270;-43
2021/01/26 02:17:19;;;;;;;25.50;14.47;;;0.50;99.90;;;;;;4173436;28;20304;-46
2021/01/26 02:19:41;;;;;;;27.83;15.47;;;0.50;99.90;;;;;;4172565;28;20311;-42
2021/01/26 02:22:09;;;;;;;28.67;14.03;;;0.40;99.90;;;;;;4173190;28;20268;-49
2021/01/26 02:24:36;;;;;;;27.30;14.63;;;0.40;99.90;;;;;;4172779;28;20278;-42
2021/01/26 02:27:02;;;;;;;28.37;14.73;;;0.40;99.90;;;;;;4172702;28;20293;-41
2021/01/26 02:29:20;;;;;;;26.40;13.93;;;0.40;99.90;;;;;;4172435;28;20278;-52
2021/01/26 02:31:38;;;;;;;21.63;13.00;;;0.40;99.90;;;;;;4172559;28;20271;-45
2021/01/26 02:34:03;;;;;;;23.27;12.37;;;0.40;99.90;;;;;;4173449;28;20274;-47
2021/01/26 02:36:23;;;;;;;24.00;13.17;;;0.40;99.90;;;;;;4172439;28;20278;-44
2021/01/26 02:38:38;;;;;;;20.03;11.13;;;0.50;99.90;;;;;;4172478;28;20301;-45
2021/01/26 02:40:58;;;;;;;23.07;12.20;;;0.50;99.90;;;;;;4172718;28;20323;-52
2021/01/26 02:43:17;;;;;;;22.47;11.87;;;0.50;99.90;;;;;;4172953;28;20278;-51
2021/01/26 02:45:27;;;;;;;22.37;11.80;;;0.50;99.90;;;;;;4172081;28;20266;-51
2021/01/26 02:48:03;;;;;;;21.73;12.43;;;0.50;99.90;;;;;;4173380;28;20682;-47
2021/01/26 02:50:10;;;;;;;22.83;12.67;;;0.50;99.90;;;;;;4172295;28;20087;-45
2021/01/26 02:52:28;;;;;;;23.20;13.30;;;0.50;99.90;;;;;;4172782;28;20847;-55
2021/01/26 02:54:32;;;;;;;21.93;12.03;;;0.60;99.90;;;;;;4172621;28;20289;-48
2021/01/26 02:56:36;;;;;;;20.73;11.63;;;0.60;99.90;;;;;;4172539;28;20270;-43
2021/01/26 02:58:58;;;;;;;19.90;11.83;;;0.60;99.90;;;;;;4172330;28;20323;-58
2021/01/26 03:01:01;;;;;;;24.27;11.97;;;0.60;99.90;;;;;;4172359;28;20266;-47
2021/01/26 03:03:43;;;;;;;20.67;11.93;;;0.60;99.90;;;;;;4172116;28;20754;-55
2021/01/26 03:05:46;;;;;;;22.30;12.10;;;0.70;99.90;;;;;;4172204;28;20624;-42
2021/01/26 03:08:06;;;;;;;23.43;12.97;;;0.70;99.90;;;;;;4172635;28;20270;-45
2021/01/26 03:10:16;;;;;;;22.88;13.70;;;0.60;99.90;;;;;;4172795;28;20282;-45
2021/01/26 03:12:24;;;;;;;22.17;12.60;;;0.60;99.90;;;;;;4172227;28;20032;-47
2021/01/26 03:14:35;;;;;;;24.23;12.23;;;0.60;99.90;;;;;;4172187;28;20095;-43
2021/01/26 03:16:37;;;;;;;24.77;13.40;;;0.50;99.90;;;;;;4172349;28;20277;-43
2021/01/26 03:18:48;;;;;;;21.93;12.90;;;0.50;99.90;;;;;;4172241;28;20111;-45
2021/01/26 03:20:58;;;;;;;23.95;13.73;;;0.50;99.90;;;;;;4172158;28;20274;-52
2021/01/26 03:23:12;;;;;;;25.90;13.32;;;0.60;99.90;;;;;;4172790;28;20494;-44
2021/01/26 03:25:16;;;;;;;24.97;13.87;;;0.60;99.90;;;;;;4172335;28;20504;-48
2021/01/26 03:27:22;;;;;;;25.90;14.27;;;0.60;99.90;;;;;;4172410;28;20262;-42
2021/01/26 03:29:30;;;;;;;19.90;12.50;;;0.60;99.90;;;;;;4172070;28;20323;-40
2021/01/26 03:31:52;;;;;;;21.13;12.00;;;0.60;99.90;;;;;;4174172;28;20823;-45
2021/01/26 03:33:54;;;;;;;24.20;12.53;;;0.70;99.90;;;;;;4175753;28;20387;-47
2021/01/26 03:35:55;;;;;;;24.17;13.50;;;0.70;99.90;;;;;;4175506;28;20324;-41
2021/01/26 03:38:14;;;;;;;24.93;13.17;;;0.80;99.90;;;;;;4175390;28;20302;-39
2021/01/26 03:40:15;;;;;;;23.10;12.00;;;0.80;99.90;;;;;;4175248;28;20274;-42
2021/01/26 03:42:16;;;;;;;22.83;12.87;;;0.80;99.90;;;;;;4175297;28;20290;-44
2021/01/26 03:44:17;;;;;;;21.97;11.80;;;0.80;99.90;;;;;;4175237;28;20286;-43
2021/01/26 03:46:45;;;;;;;23.37;12.87;;;0.80;99.90;;;;;;4175786;28;20286;-44
2021/01/26 03:49:14;;;;;;;24.47;13.53;;;0.70;99.90;;;;;;4174740;28;20332;-46
2021/01/26 03:51:45;;;;;;;21.60;11.77;;;0.70;99.90;;;;;;4175450;28;20328;-48
2021/01/26 03:54:11;;;;;;;23.87;12.33;;;0.70;99.90;;;;;;4175208;28;20270;-51
2021/01/26 03:56:33;;;;;;;24.77;13.10;;;0.70;99.90;;;;;;4175402;28;20754;-48
2021/01/26 03:59:00;;;;;;;22.80;12.20;;;0.70;99.90;;;;;;4174899;28;20766;-50
2021/01/26 04:01:12;;;;;;;26.33;12.90;;;0.70;99.90;;;;;;4169845;28;20286;-47
2021/01/26 04:03:26;;;;;;;19.60;11.10;;;0.80;99.90;;;;;;4174921;28;20319;-47
2021/01/26 04:05:52;;;;;;;25.17;12.60;;;0.80;99.90;;;;;;4175169;28;20324;-48
2021/01/26 04:08:12;;;;;;;26.50;12.57;;;0.80;99.90;;;;;;4174979;28;20270;-42
2021/01/26 04:10:23;;;;;;;21.75;12.25;;;0.90;99.90;;;;;;4174707;28;20316;-50
2021/01/26 04:12:30;;;;;;;20.67;12.13;;;0.90;99.90;;;;;;4174924;28;20102;-42
2021/01/26 04:14:34;;;;;;;20.63;12.17;;;0.90;99.90;;;;;;4174809;28;21104;-46
2021/01/26 04:16:43;;;;;;;15.50;10.03;;;0.90;99.90;;;;;;4174913;28;20328;-41
2021/01/26 04:18:49;;;;;;;20.47;11.90;;;0.90;99.90;;;;;;4174593;28;20324;-44
2021/01/26 04:20:51;;;;;;;21.10;11.90;;;0.90;99.90;;;;;;4174667;28;20340;-44
2021/01/26 04:22:56;;;;;;;18.83;12.17;;;0.90;99.90;;;;;;4174753;28;20835;-53
2021/01/26 04:24:58;;;;;;;21.13;11.63;;;0.90;99.90;;;;;;4174456;28;20270;-44
2021/01/26 04:27:02;;;;;;;22.23;11.60;;;0.90;99.90;;;;;;4174466;28;20324;-51
2021/01/26 04:29:03;;;;;;;22.27;12.40;;;0.90;99.90;;;;;;4173947;28;20754;-44
2021/01/26 04:31:08;;;;;;;18.57;11.40;;;0.90;99.90;;;;;;4174913;28;20278;-43
2021/01/26 04:33:15;;;;;;;23.10;12.23;;;0.90;99.90;;;;;;4174816;28;20263;-45
2021/01/26 04:35:16;;;;;;;20.47;11.40;;;0.90;99.90;;;;;;4175286;28;20320;-42
2021/01/26 04:37:17;;;;;;;20.00;11.70;;;0.90;99.90;;;;;;4173915;28;20290;-44
2021/01/26 04:39:18;;;;;;;20.17;11.83;;;0.90;99.90;;;;;;4174659;28;20270;-50
2021/01/26 04:41:55;;;;;;;23.10;12.67;;;0.90;99.90;;;;;;4174467;28;20254;-43
2021/01/26 04:44:51;;;;;;;21.57;11.47;;;0.90;99.90;;;;;;4173673;28;20348;-52
2021/01/26 04:47:08;;;;;;;19.77;11.57;;;1.00;99.90;;;;;;4156537;28;20340;-44
2021/01/26 04:49:25;;;;;;;20.50;11.90;;;1.00;99.90;;;;;;4174313;28;20880;-53
2021/01/26 04:51:38;;;;;;;23.10;12.07;;;1.00;99.90;;;;;;4174637;28;20331;-40
2021/01/26 04:54:05;;;;;;;19.67;10.57;;;1.10;99.90;;;;;;4174437;28;21186;-44
2021/01/26 04:56:12;;;;;;;22.30;13.00;;;1.10;99.90;;;;;;4173982;28;20278;-47
2021/01/26 04:58:45;;;;;;;20.90;12.87;;;1.20;99.90;;;;;;4173961;28;20786;-43
2021/01/26 05:01:31;;;;;;;27.70;13.17;;;1.20;99.90;;;;;;4152107;28;20685;-44
2021/01/26 05:03:59;;;;;;;24.63;13.87;;;1.20;99.90;;;;;;4157679;28;20340;-51
2021/01/26 05:06:04;;;;;;;33.13;16.23;;;1.20;99.90;;;;;;4157113;28;20302;-58
2021/01/26 05:08:18;;;;;;;39.67;19.53;;;1.20;99.90;;;;;;4174005;28;20274;-45
2021/01/26 05:10:31;;;;;;;74.83;30.83;;;1.20;99.90;;;;;;4173612;28;20274;-46
2021/01/26 05:12:49;;;;;;;76.40;35.77;;;1.20;99.90;;;;;;4173900;28;20328;-49
2021/01/26 05:14:55;;;;;;;60.40;29.97;;;1.30;99.90;;;;;;4173905;28;20258;-49
2021/01/26 05:17:07;;;;;;;59.93;32.27;;;1.30;99.90;;;;;;4173154;28;20270;-41
2021/01/26 05:19:17;;;;;;;57.20;31.73;;;1.20;99.90;;;;;;4173527;28;20286;-44
2021/01/26 05:21:29;;;;;;;36.42;20.30;;;1.20;99.90;;;;;;4172706;28;20270;-47
2021/01/26 05:23:35;;;;;;;30.40;16.60;;;1.20;99.90;;;;;;4173582;28;20040;-51
2021/01/26 05:25:36;;;;;;;28.83;15.10;;;1.20;99.90;;;;;;4173635;28;21113;-46
2021/01/26 05:27:38;;;;;;;26.77;14.83;;;1.20;99.90;;;;;;4174272;28;20799;-42
2021/01/26 05:29:42;;;;;;;27.53;16.67;;;1.20;99.90;;;;;;4173333;28;20261;-49
2021/01/26 05:31:47;;;;;;;30.17;15.53;;;1.20;99.90;;;;;;4173366;28;20315;-44
2021/01/26 05:33:48;;;;;;;32.27;16.90;;;1.20;99.90;;;;;;4173483;28;20262;-47
2021/01/26 05:35:55;;;;;;;34.73;18.63;;;1.20;99.90;;;;;;4173404;28;21116;-48
2021/01/26 05:37:56;;;;;;;33.97;20.53;;;1.20;99.90;;;;;;4173364;28;20792;-46
2021/01/26 05:40:15;;;;;;;34.23;20.17;;;1.20;99.90;;;;;;4173439;28;20304;-42
2021/01/26 05:42:18;;;;;;;29.40;16.60;;;1.20;99.90;;;;;;4172743;28;20355;-43
2021/01/26 05:44:21;;;;;;;27.67;15.70;;;1.20;99.90;;;;;;4173266;28;20607;-54
2021/01/26 05:46:42;;;;;;;34.73;17.00;;;1.20;99.90;;;;;;4172477;28;20347;-46
2021/01/26 05:48:49;;;;;;;31.47;17.37;;;1.20;99.90;;;;;;4173819;28;20312;-45
2021/01/26 05:50:52;;;;;;;34.70;19.20;;;1.20;99.90;;;;;;4172494;28;20619;-41
2021/01/26 05:52:57;;;;;;;34.97;20.70;;;1.20;99.90;;;;;;4173453;28;20336;-51
2021/01/26 05:54:59;;;;;;;32.23;18.57;;;1.10;99.90;;;;;;4173273;28;20282;-44
2021/01/26 05:57:01;;;;;;;33.23;18.90;;;1.10;99.90;;;;;;4173937;28;20658;-50
2021/01/26 05:59:38;;;;;;;37.37;20.97;;;1.10;99.90;;;;;;4173174;28;20294;-40
2021/01/26 06:01:39;;;;;;;40.63;21.50;;;1.10;99.90;;;;;;4163990;28;20835;-45
2021/01/26 06:03:40;;;;;;;36.73;19.77;;;1.10;99.90;;;;;;4172955;28;21224;-54
2021/01/26 06:05:42;;;;;;;51.03;24.23;;;1.10;99.90;;;;;;4173508;28;20765;-52
2021/01/26 06:07:44;;;;;;;43.03;23.67;;;1.10;99.90;;;;;;4172497;28;20336;-43
2021/01/26 06:09:45;;;;;;;43.40;22.60;;;1.10;99.90;;;;;;4172905;28;20301;-46
2021/01/26 06:11:46;;;;;;;36.70;19.80;;;1.10;99.90;;;;;;4173022;28;20270;-44
2021/01/26 06:13:47;;;;;;;40.73;22.57;;;1.10;99.90;;;;;;4172780;28;20320;-45
2021/01/26 06:15:49;;;;;;;43.73;22.23;;;1.10;99.90;;;;;;4172620;28;20803;-46
2021/01/26 06:17:50;;;;;;;40.03;20.17;;;1.10;99.90;;;;;;4173214;28;20367;-53
2021/01/26 06:20:13;;;;;;;46.53;21.53;;;1.10;99.90;;;;;;4172378;28;20274;-42
2021/01/26 06:22:24;;;;;;;29.23;15.30;;;1.10;99.90;;;;;;4173111;28;20270;-54
2021/01/26 06:24:28;;;;;;;42.70;18.30;;;1.10;99.90;;;;;;4172694;28;20282;-41
2021/01/26 06:26:37;;;;;;;31.43;16.47;;;1.10;99.90;;;;;;4172270;28;20151;-56
2021/01/26 06:28:45;;;;;;;34.93;18.60;;;1.10;99.90;;;;;;4172252;28;20278;-44
2021/01/26 06:30:46;;;;;;;29.17;16.60;;;1.10;99.90;;;;;;4171714;28;20277;-43
2021/01/26 06:33:45;;;;;;;36.93;19.10;;;1.10;99.90;;;;;;4172201;28;20274;-44
2021/01/26 06:36:07;;;;;;;26.77;14.63;;;1.10;99.90;;;;;;4134401;28;20291;-52
2021/01/26 06:38:16;;;;;;;29.80;16.37;;;1.10;99.90;;;;;;4136891;28;20303;-42
2021/01/26 06:40:53;;;;;;;28.63;16.80;;;1.20;99.90;;;;;;4142874;28;20270;-56
2021/01/26 06:43:03;;;;;;;33.33;17.13;;;1.20;99.90;;;;;;4148143;28;20286;-52
2021/01/26 06:45:16;;;;;;;31.85;15.48;;;1.20;99.90;;;;;;4156470;28;20771;-50
2021/01/26 06:47:52;;;;;;;27.90;14.63;;;1.20;99.90;;;;;;4156301;28;20045;-52
2021/01/26 06:50:02;;;;;;;40.37;19.67;;;1.20;99.90;;;;;;4166488;28;20282;-56
2021/01/26 06:52:22;;;;;;;29.90;16.27;;;1.20;99.90;;;;;;4165894;28;20266;-40
2021/01/26 06:54:36;;;;;;;28.60;16.05;;;1.20;99.90;;;;;;4165478;28;20282;-46
2021/01/26 06:56:49;;;;;;;23.30;12.80;;;1.30;99.90;;;;;;4172277;28;20063;-54
2021/01/26 06:59:11;;;;;;;21.83;11.33;;;1.30;99.90;;;;;;4171369;28;20302;-52
2021/01/26 07:01:27;;;;;;;23.00;12.03;;;1.30;99.90;;;;;;4170681;28;20355;-59
2021/01/26 07:04:13;;;;;;;22.50;12.73;;;1.20;99.90;;;;;;4171369;28;20325;-50
2021/01/26 07:06:38;;;;;;;17.80;10.57;;;1.30;99.90;;;;;;4138308;28;20287;-49
2021/01/26 07:08:59;;;;;;;24.87;13.03;;;1.30;99.90;;;;;;4168886;28;20258;-50
2021/01/26 07:11:11;;;;;;;20.85;10.32;;;1.20;99.90;;;;;;4164102;28;20711;-43
2021/01/26 07:13:31;;;;;;;20.03;11.00;;;1.20;99.90;;;;;;4170535;28;20037;-43
2021/01/26 07:15:59;;;;;;;23.00;11.13;;;1.20;99.90;;;;;;4172347;28;20274;-50
2021/01/26 07:18:19;;;;;;;18.03;10.17;;;1.10;99.90;;;;;;4171211;28;20049;-47
2021/01/26 07:20:32;;;;;;;22.33;11.47;;;1.20;99.90;;;;;;4170519;28;20335;-50
2021/01/26 07:22:45;;;;;;;18.13;9.90;;;1.10;99.90;;;;;;4171804;28;20331;-48
2021/01/26 07:25:00;;;;;;;15.73;8.77;;;1.20;99.90;;;;;;4169371;28;20286;-52
2021/01/26 07:27:30;;;;;;;18.50;10.17;;;1.20;99.90;;;;;;4169382;28;21067;-44
2021/01/26 07:29:52;;;;;;;22.55;12.30;;;1.20;99.90;;;;;;4170373;28;20266;-46
2021/01/26 07:32:03;;;;;;;24.73;12.23;;;1.20;99.90;;;;;;4171322;28;20167;-42
2021/01/26 07:34:23;;;;;;;18.25;10.45;;;1.10;99.90;;;;;;4170530;28;20328;-46
2021/01/26 07:36:44;;;;;;;20.87;11.83;;;1.10;99.90;;;;;;4171195;28;20102;-47
2021/01/26 07:39:00;;;;;;;23.30;11.60;;;1.00;99.90;;;;;;4171370;28;20351;-46
2021/01/26 07:41:01;;;;;;;21.77;11.60;;;1.00;99.90;;;;;;4172804;28;20273;-44
2021/01/26 07:43:26;;;;;;;21.07;11.23;;;1.00;99.90;;;;;;4170751;28;20654;-51
2021/01/26 07:45:41;;;;;;;22.33;11.47;;;1.00;99.90;;;;;;4171782;28;20673;-45
2021/01/26 07:48:08;;;;;;;21.20;10.23;;;1.00;99.90;;;;;;4172454;28;20991;-55
2021/01/26 07:50:21;;;;;;;20.60;11.30;;;1.00;99.90;;;;;;4172034;28;20328;-43
2021/01/26 07:52:25;;;;;;;26.50;12.63;;;1.00;99.90;;;;;;4171560;28;20266;-44
2021/01/26 07:54:45;;;;;;;24.50;12.77;;;0.90;99.90;;;;;;4170895;28;20274;-46
2021/01/26 07:56:46;;;;;;;23.10;11.33;;;1.00;99.90;;;;;;4170949;28;20282;-47
2021/01/26 07:58:48;;;;;;;20.27;11.00;;;1.10;99.90;;;;;;4171822;28;20301;-56
2021/01/26 08:00:55;;;;;;;22.73;13.43;;;1.10;99.90;;;;;;4170929;28;20823;-51
2021/01/26 08:02:58;;;;;;;24.77;13.03;;;1.20;99.90;;;;;;4171250;28;20388;-56
2021/01/26 08:05:08;;;;;;;24.57;12.27;;;1.20;99.90;;;;;;4170438;28;20308;-56
2021/01/26 08:07:23;;;;;;;23.65;14.30;;;1.20;99.90;;;;;;4171759;28;20278;-54
2021/01/26 08:09:33;;;;;;;25.30;14.13;;;1.20;99.90;;;;;;4171150;28;20431;-55
2021/01/26 08:11:34;;;;;;;22.90;12.47;;;1.30;99.90;;;;;;4172147;28;20311;-55
2021/01/26 08:13:46;;;;;;;25.53;15.07;;;1.30;99.90;;;;;;4171542;28;20781;-53
2021/01/26 08:15:47;;;;;;;23.83;12.90;;;1.40;99.90;;;;;;4171880;28;21159;-50
2021/01/26 08:17:49;;;;;;;21.47;12.73;;;1.40;99.90;;;;;;4174069;28;20320;-55
2021/01/26 08:20:00;;;;;;;22.70;12.90;;;1.40;99.90;;;;;;4175288;28;20254;-50
2021/01/26 08:22:17;;;;;;;27.30;12.10;;;1.50;99.90;;;;;;4174373;28;20296;-58
2021/01/26 08:24:35;;;;;;;22.17;12.00;;;1.60;99.90;;;;;;4175121;28;20037;-60
2021/01/26 08:26:37;;;;;;;21.73;12.67;;;1.60;99.90;;;;;;4173647;28;20262;-53
2021/01/26 08:28:38;;;;;;;23.30;12.53;;;1.60;99.90;;;;;;4174827;28;20612;-59
2021/01/26 08:30:47;;;;;;;25.57;14.00;;;1.60;99.90;;;;;;4174297;28;21299;-51
2021/01/26 08:33:05;;;;;;;25.97;15.67;;;1.60;99.90;;;;;;4175322;28;20270;-53
2021/01/26 08:35:08;;;;;;;27.60;17.03;;;1.60;99.90;;;;;;4174132;28;20254;-58
2021/01/26 08:37:10;;;;;;;21.40;12.73;;;1.60;99.90;;;;;;4174299;28;20333;-50
2021/01/26 08:39:20;;;;;;;20.70;12.03;;;1.60;99.90;;;;;;4171991;28;20785;-51
2021/01/26 08:41:43;;;;;;;22.90;14.95;;;1.60;99.90;;;;;;4172210;28;20282;-54
2021/01/26 08:43:49;;;;;;;24.53;15.43;;;1.70;99.90;;;;;;4171478;28;20130;-56
2021/01/26 08:45:53;;;;;;;29.67;17.33;;;1.80;99.90;;;;;;4173635;28;20274;-59
2021/01/26 08:47:57;;;;;;;23.63;13.00;;;1.80;99.90;;;;;;4173818;28;20793;-50
2021/01/26 08:50:15;;;;;;;25.77;15.70;;;1.80;99.90;;;;;;4174531;28;20274;-58
2021/01/26 08:52:22;;;;;;;21.17;11.90;;;1.70;99.90;;;;;;4174541;28;20635;-47
2021/01/26 08:54:44;;;;;;;23.57;11.77;;;1.70;99.90;;;;;;4174664;28;20274;-50
2021/01/26 08:56:45;;;;;;;21.30;12.63;;;1.70;99.90;;;;;;4173369;28;20274;-51
2021/01/26 08:58:53;;;;;;;22.43;11.27;;;1.80;99.90;;;;;;4174047;28;20371;-53
2021/01/26 09:00:55;;;;;;;24.20;11.60;;;1.80;99.90;;;;;;4172792;28;21179;-54
2021/01/26 09:02:56;;;;;;;21.20;11.73;;;1.80;99.90;;;;;;4174183;28;20332;-46
2021/01/26 09:04:57;;;;;;;20.97;11.87;;;1.80;99.90;;;;;;4173892;28;20282;-59
2021/01/26 09:06:58;;;;;;;24.33;12.30;;;1.80;99.90;;;;;;4172515;28;20812;-49
2021/01/26 09:09:00;;;;;;;23.37;12.10;;;1.90;99.90;;;;;;4173891;28;20282;-58
2021/01/26 09:11:01;;;;;;;22.03;12.43;;;1.90;99.90;;;;;;4173883;28;20328;-52
2021/01/26 09:13:03;;;;;;;23.93;12.80;;;1.90;99.90;;;;;;4174318;28;20624;-53
2021/01/26 09:15:07;;;;;;;25.10;12.53;;;1.90;99.90;;;;;;4173545;28;20751;-49
2021/01/26 09:17:21;;;;;;;24.83;11.90;;;2.00;99.90;;;;;;4174104;28;20262;-49
2021/01/26 09:19:32;;;;;;;28.57;13.83;;;2.10;99.90;;;;;;4173814;28;20356;-58
2021/01/26 09:21:34;;;;;;;23.47;13.70;;;2.20;99.90;;;;;;4173995;28;20327;-53
2021/01/26 09:23:36;;;;;;;22.83;12.60;;;2.30;99.90;;;;;;4174046;28;20262;-50
2021/01/26 09:25:45;;;;;;;24.23;13.23;;;2.40;99.90;;;;;;4161278;28;20337;-49
2021/01/26 09:28:00;;;;;;;24.07;12.90;;;2.60;99.90;;;;;;4171789;28;20863;-55
2021/01/26 09:30:14;;;;;;;17.97;9.33;;;2.60;99.90;;;;;;4173257;28;20270;-54
2021/01/26 09:32:18;;;;;;;13.17;7.50;;;2.60;99.90;;;;;;4172035;28;20262;-52
2021/01/26 09:34:28;;;;;;;16.83;8.80;;;2.50;99.90;;;;;;4173423;28;20266;-42
2021/01/26 09:36:30;;;;;;;13.33;7.47;;;2.60;99.90;;;;;;4171437;28;20262;-50
2021/01/26 09:38:44;;;;;;;16.10;8.73;;;2.60;99.90;;;;;;4172275;28;20306;-49
2021/01/26 09:41:18;;;;;;;15.93;8.47;;;2.60;99.90;;;;;;4172384;28;20339;-48
2021/01/26 09:43:25;;;;;;;17.97;7.83;;;2.70;99.90;;;;;;4171583;28;20331;-51
2021/01/26 09:45:26;;;;;;;14.93;7.50;;;2.80;99.90;;;;;;4173467;28;20689;-47
2021/01/26 09:47:29;;;;;;;15.47;7.43;;;2.80;99.90;;;;;;4173031;28;20836;-44
2021/01/26 09:49:31;;;;;;;16.20;8.00;;;2.80;99.90;;;;;;4172902;28;20564;-47
2021/01/26 09:52:01;;;;;;;15.43;8.13;;;2.80;99.90;;;;;;4172665;28;20294;-46
2021/01/26 09:54:12;;;;;;;17.55;7.50;;;2.90;99.90;;;;;;4169697;28;20348;-48
2021/01/26 09:56:18;;;;;;;17.65;7.10;;;2.90;99.90;;;;;;4171768;28;20033;-51
2021/01/26 09:58:21;;;;;;;12.17;7.03;;;3.00;99.90;;;;;;4172000;28;20041;-47
2021/01/26 10:00:25;;;;;;;14.60;6.80;;;3.00;99.90;;;;;;4172172;28;20324;-44
2021/01/26 10:02:28;;;;;;;15.43;6.93;;;3.10;99.90;;;;;;4173016;28;20743;-44
2021/01/26 10:04:33;;;;;;;16.40;8.07;;;3.10;99.90;;;;;;4172801;28;20340;-45
2021/01/26 10:06:36;;;;;;;18.23;8.10;;;3.20;99.90;;;;;;4170922;28;20284;-49
2021/01/26 10:08:37;;;;;;;18.27;8.77;;;3.20;99.90;;;;;;4171329;28;20282;-46
2021/01/26 10:10:40;;;;;;;15.30;8.03;;;3.30;99.90;;;;;;4171277;28;20274;-48
2021/01/26 10:12:45;;;;;;;17.37;8.27;;;3.40;99.90;;;;;;4172291;28;20418;-56
2021/01/26 10:15:07;;;;;;;13.80;7.43;;;3.60;99.90;;;;;;4171474;28;21130;-53
2021/01/26 10:17:15;;;;;;;16.27;8.43;;;3.70;99.90;;;;;;4170903;28;20286;-48
2021/01/26 10:19:31;;;;;;;17.53;7.37;;;3.80;99.90;;;;;;4170385;28;20302;-44
2021/01/26 10:21:33;;;;;;;15.57;8.27;;;3.80;99.90;;;;;;4172746;28;20324;-52
2021/01/26 10:23:37;;;;;;;15.57;7.90;;;3.80;99.90;;;;;;4171947;28;21042;-44
2021/01/26 10:25:41;;;;;;;15.43;8.10;;;3.80;99.90;;;;;;4172636;28;20663;-50
2021/01/26 10:27:43;;;;;;;14.53;6.73;;;3.70;99.90;;;;;;4170722;28;20270;-44
2021/01/26 10:29:45;;;;;;;14.83;7.17;;;3.70;99.90;;;;;;4171974;28;20278;-50
2021/01/26 10:31:55;;;;;;;18.97;7.50;;;3.60;99.90;;;;;;4171350;28;20324;-45
2021/01/26 10:33:56;;;;;;;19.13;7.83;;;3.50;99.90;;;;;;4171311;28;20286;-46
2021/01/26 10:36:17;;;;;;;19.83;6.47;;;3.50;99.90;;;;;;4171365;28;20368;-46
2021/01/26 10:38:32;;;;;;;;;;;3.40;99.90;;;;;;4172948;28;20709;-52
2021/01/26 10:40:33;;;;;;;21.77;7.80;;;3.30;99.90;;;;;;4171634;28;19955;-43
2021/01/26 10:42:35;;;;;;;13.80;6.27;;;3.10;99.90;;;;;;4172415;28;20809;-53
2021/01/26 10:44:44;;;;;;;12.47;6.17;;;3.10;99.90;;;;;;4171763;28;20754;-44
2021/01/26 10:46:48;;;;;;;22.87;7.43;;;3.00;99.90;;;;;;4172531;28;20274;-49
2021/01/26 10:48:49;;;;;;;19.33;6.33;;;2.90;99.90;;;;;;4172605;28;20278;-47
2021/01/26 10:50:55;;;;;;;18.60;6.53;;;2.70;99.90;;;;;;4171725;28;21150;-40
2021/01/26 10:52:56;;;;;;;11.23;6.07;;;2.70;99.90;;;;;;4171197;28;20286;-45
2021/01/26 10:54:57;;;;;;;28.67;8.33;;;2.70;99.90;;;;;;4170836;28;20274;-44
2021/01/26 10:56:58;;;;;;;15.37;6.60;;;2.70;99.90;;;;;;4172602;28;20274;-42
2021/01/26 10:58:59;;;;;;;25.13;7.77;;;2.70;99.90;;;;;;4172350;28;20312;-44
2021/01/26 11:01:02;;;;;;;19.20;7.10;;;2.60;99.90;;;;;;4172245;28;20270;-43
2021/01/26 11:03:03;;;;;;;14.17;7.30;;;2.60;99.90;;;;;;4172514;28;20320;-42
2021/01/26 11:05:07;;;;;;;18.23;8.13;;;2.80;99.90;;;;;;4172020;28;20718;-50
2021/01/26 11:07:08;;;;;;;14.73;6.80;;;2.90;99.90;;;;;;4169175;28;20332;-46